Seneimaru — JG5357 — position and weather

sailwx.info

Track history (hours):
 
Tides and Currents Weather Stations Pressure Air Temp Water Temp Dewpoint Dewpoint Depression Visibility Wind Speed Wind Dir Waves Ship Positions

Seneimaru

Last reported at 2014-Aug-22 07:12 UTC. Time now 2014-Aug-23 19:19 UTC.
Position N 34°31' E 139°60'.

Length 72 m; draft 5.9 m.

Type: Cargo ship. MMSI: 431100477.

Date/timePositionNaut miles runAvg speedWind from/ knotsBaromVisibWave heightAir tempDewpointWater temp
2014-Aug-22 07:12N 34°31' E 139°60'2110.2
2014-Aug-22 05:06N 34°50' E 139°48'611.0
2014-Aug-22 04:33N 34°55' E 139°45'1010.3
2014-Aug-22 03:33N 35°06' E 139°45'1010.4
2014-Aug-22 02:33N 35°16' E 139°46'10 9.5
2014-Aug-22 01:33N 35°25' E 139°44'5 4.7
2014-Aug-22 00:33N 35°30' E 139°43'0 0.3
2014-Aug-21 23:33N 35°30' E 139°43'0 0.0
2014-Aug-21 22:33N 35°30' E 139°43'0 0.0
2014-Aug-21 21:33N 35°30' E 139°43'0 0.0
2014-Aug-21 20:33N 35°30' E 139°43'1 1.4
2014-Aug-21 19:33N 35°29' E 139°42'6 5.9
2014-Aug-21 18:33N 35°23' E 139°44'0 0.0
2014-Aug-21 17:31N 35°23' E 139°44'0 0.0
2014-Aug-21 16:31N 35°23' E 139°44'0 0.1
2014-Aug-21 15:31N 35°23' E 139°44'0 0.0
2014-Aug-21 14:31N 35°23' E 139°44'0 0.0
2014-Aug-21 13:28N 35°23' E 139°44'0 0.0
2014-Aug-21 12:31N 35°23' E 139°44'0 0.0
2014-Aug-21 11:32N 35°23' E 139°44'9 9.0
2014-Aug-21 10:33N 35°15' E 139°47'1111.3
2014-Aug-21 09:34N 35°04' E 139°42'1312.3
2014-Aug-21 08:28N 34°56' E 139°29'  
Track history (hours):
 
Tides and Currents Weather Stations Pressure Air Temp Water Temp Dewpoint Dewpoint Depression Visibility Wind Speed Wind Dir Waves Ship Positions

Seneimaru

Last reported at 2014-Aug-22 07:12 UTC. Time now 2014-Aug-23 19:19 UTC.
Position N 34°31' E 139°60'.

Length 72 m; draft 5.9 m.

Type: Cargo ship. MMSI: 431100477.

Date/timePositionNaut miles runAvg speedWind from/ knotsBaromVisibWave heightAir tempDewpointWater temp
2014-Aug-22 07:12N 34°31' E 139°60'2110.2
2014-Aug-22 05:06N 34°50' E 139°48'611.0
2014-Aug-22 04:33N 34°55' E 139°45'1010.3
2014-Aug-22 03:33N 35°06' E 139°45'1010.4
2014-Aug-22 02:33N 35°16' E 139°46'10 9.5
2014-Aug-22 01:33N 35°25' E 139°44'5 4.7
2014-Aug-22 00:33N 35°30' E 139°43'0 0.3
2014-Aug-21 23:33N 35°30' E 139°43'0 0.0
2014-Aug-21 22:33N 35°30' E 139°43'0 0.0
2014-Aug-21 21:33N 35°30' E 139°43'0 0.0
2014-Aug-21 20:33N 35°30' E 139°43'1 1.4
2014-Aug-21 19:33N 35°29' E 139°42'6 5.9
2014-Aug-21 18:33N 35°23' E 139°44'0 0.0
2014-Aug-21 17:31N 35°23' E 139°44'0 0.0
2014-Aug-21 16:31N 35°23' E 139°44'0 0.1
2014-Aug-21 15:31N 35°23' E 139°44'0 0.0
2014-Aug-21 14:31N 35°23' E 139°44'0 0.0
2014-Aug-21 13:28N 35°23' E 139°44'0 0.0
2014-Aug-21 12:31N 35°23' E 139°44'0 0.0
2014-Aug-21 11:32N 35°23' E 139°44'9 9.0
2014-Aug-21 10:33N 35°15' E 139°47'1111.3
2014-Aug-21 09:34N 35°04' E 139°42'1312.3
2014-Aug-21 08:28N 34°56' E 139°29'  

Dump ship's entire track history